createdAt,value
2023-05-10T00:01:37.037Z,11.15
2023-05-10T00:04:03.625Z,11.15
2023-05-10T00:06:30.152Z,11.13
2023-05-10T00:08:56.608Z,11.06
2023-05-10T00:11:23.257Z,11.04
2023-05-10T00:13:49.834Z,11.04
2023-05-10T00:16:17.618Z,11.00
2023-05-10T00:18:44.117Z,10.99
2023-05-10T00:21:10.549Z,11.00
2023-05-10T00:23:36.989Z,10.97
2023-05-10T00:26:03.352Z,10.93
2023-05-10T00:28:29.878Z,10.91
2023-05-10T00:30:57.136Z,10.86
2023-05-10T00:33:24.888Z,10.79
2023-05-10T00:35:51.335Z,10.73
2023-05-10T00:38:17.807Z,10.67
2023-05-10T00:40:44.310Z,10.59
2023-05-10T00:43:18.583Z,10.58
2023-05-10T00:45:45.484Z,10.58
2023-05-10T00:48:12.025Z,10.52
2023-05-10T00:50:40.221Z,10.48
2023-05-10T00:53:07.101Z,10.46
2023-05-10T00:55:33.690Z,10.44
2023-05-10T00:58:00.151Z,10.40
2023-05-10T01:00:26.717Z,10.38
2023-05-10T01:02:54.349Z,10.41
2023-05-10T01:05:22.607Z,10.37
2023-05-10T01:07:50.416Z,10.40
2023-05-10T01:10:17.216Z,10.34
2023-05-10T01:12:47.204Z,10.38
2023-05-10T01:15:17.075Z,10.33
2023-05-10T01:17:47.678Z,10.32
2023-05-10T01:20:16.389Z,10.29
2023-05-10T01:23:24.849Z,10.25
2023-05-10T01:26:14.880Z,10.23
2023-05-10T01:29:13.052Z,10.21
2023-05-10T01:32:09.997Z,10.11
2023-05-10T01:34:47.836Z,10.10
2023-05-10T01:37:21.111Z,10.08
2023-05-10T01:39:55.866Z,10.00
2023-05-10T01:42:27.595Z,10.02
2023-05-10T01:44:59.469Z,9.98
2023-05-10T01:47:35.663Z,9.97
2023-05-10T01:50:05.642Z,9.95
2023-05-10T01:52:37.454Z,9.92
2023-05-10T01:55:07.338Z,9.91
2023-05-10T01:57:37.916Z,9.88
2023-05-10T02:00:07.468Z,9.89
2023-05-10T02:02:46.806Z,9.90
2023-05-10T02:05:18.047Z,9.85
2023-05-10T02:07:46.059Z,9.87
2023-05-10T02:10:14.363Z,9.90
2023-05-10T02:12:44.010Z,9.85
2023-05-10T02:15:13.090Z,9.84
2023-05-10T02:17:41.096Z,9.78
2023-05-10T02:20:11.106Z,9.77
2023-05-10T02:22:38.664Z,9.75
2023-05-10T02:25:07.670Z,9.74
2023-05-10T02:27:35.521Z,9.69
2023-05-10T02:30:02.774Z,9.73
2023-05-10T02:32:30.698Z,9.69
2023-05-10T02:34:58.217Z,9.67
2023-05-10T02:37:26.387Z,9.61
2023-05-10T02:39:55.895Z,9.62
2023-05-10T02:42:27.031Z,9.58
2023-05-10T02:44:55.510Z,9.55
2023-05-10T02:47:22.004Z,9.55
2023-05-10T02:49:48.742Z,9.49
2023-05-10T02:52:19.980Z,9.44
2023-05-10T02:54:51.141Z,9.45
2023-05-10T02:57:22.433Z,9.42
2023-05-10T02:59:49.060Z,9.44
2023-05-10T03:02:15.705Z,9.45
2023-05-10T03:04:42.245Z,9.47
2023-05-10T03:07:09.061Z,9.54
2023-05-10T03:09:36.067Z,9.55
2023-05-10T03:12:08.631Z,9.57
2023-05-10T03:14:49.962Z,9.54
2023-05-10T03:17:23.418Z,9.48
2023-05-10T03:19:54.514Z,9.43
2023-05-10T03:22:26.117Z,9.52
2023-05-10T03:24:56.207Z,9.55
2023-05-10T03:27:27.020Z,9.39
2023-05-10T03:29:55.647Z,9.49
2023-05-10T03:32:22.998Z,9.49
2023-05-10T03:34:49.436Z,9.52
2023-05-10T03:37:15.910Z,9.48
2023-05-10T03:39:42.398Z,9.57
2023-05-10T03:42:10.124Z,9.61
2023-05-10T03:44:37.883Z,9.64
2023-05-10T03:47:04.595Z,9.68
2023-05-10T03:49:31.164Z,9.71
2023-05-10T03:51:57.561Z,9.75
2023-05-10T03:54:23.965Z,9.75
2023-05-10T03:56:50.396Z,9.65
2023-05-10T03:59:18.338Z,9.83
2023-05-10T04:01:46.218Z,9.90
2023-05-10T04:04:12.802Z,9.99
2023-05-10T04:06:39.523Z,10.07
2023-05-10T04:09:06.061Z,10.09
2023-05-10T04:11:32.579Z,10.16
2023-05-10T04:13:59.054Z,10.14
2023-05-10T04:16:25.591Z,10.22
2023-05-10T04:18:53.468Z,10.28
2023-05-10T04:21:19.849Z,10.29
2023-05-10T04:23:46.425Z,10.38
2023-05-10T04:26:13.609Z,10.42
2023-05-10T04:28:40.073Z,10.49
2023-05-10T04:31:08.213Z,10.50
2023-05-10T04:33:34.790Z,10.59
2023-05-10T04:36:03.002Z,10.64
2023-05-10T04:38:29.980Z,10.71
2023-05-10T04:41:04.798Z,10.77
2023-05-10T04:43:31.141Z,10.83
2023-05-10T04:45:57.622Z,10.92
2023-05-10T04:48:24.101Z,11.01
2023-05-10T04:50:50.548Z,11.13
2023-05-10T04:53:18.299Z,11.23
2023-05-10T04:55:44.632Z,11.34
2023-05-10T04:58:11.009Z,11.47
2023-05-10T05:00:37.468Z,11.63
2023-05-10T05:03:04.453Z,11.76
2023-05-10T05:05:30.878Z,11.90
2023-05-10T05:07:57.299Z,11.98
2023-05-10T05:10:25.069Z,12.13
2023-05-10T05:12:52.697Z,12.24
2023-05-10T05:15:19.086Z,12.29
2023-05-10T05:17:45.604Z,12.49
2023-05-10T05:20:12.393Z,13.48
2023-05-10T05:22:38.886Z,14.75
2023-05-10T05:25:06.497Z,16.05
2023-05-10T05:27:34.299Z,18.34
2023-05-10T05:30:00.712Z,18.04
2023-05-10T05:32:27.280Z,16.51
2023-05-10T05:34:53.682Z,16.20
2023-05-10T05:37:21.226Z,15.20
2023-05-10T05:39:48.406Z,14.93
2023-05-10T05:42:15.030Z,14.28
2023-05-10T05:44:44.339Z,13.80
2023-05-10T05:47:10.881Z,13.82
2023-05-10T05:49:37.406Z,13.66
2023-05-10T05:52:04.803Z,13.35
2023-05-10T05:57:26.031Z,13.33
2023-05-10T05:59:53.944Z,13.46
2023-05-10T06:02:20.396Z,13.52
2023-05-10T06:04:46.854Z,13.68
2023-05-10T06:07:13.373Z,13.50
2023-05-10T06:09:39.826Z,13.64
2023-05-10T06:12:06.407Z,13.69
2023-05-10T06:14:32.818Z,13.74
2023-05-10T06:17:00.741Z,13.61
2023-05-10T06:19:27.266Z,13.64
2023-05-10T06:21:53.999Z,13.80
2023-05-10T06:24:20.590Z,13.88
2023-05-10T06:26:47.043Z,14.10
2023-05-10T06:29:13.568Z,14.38
2023-05-10T06:31:39.997Z,14.55
2023-05-10T06:34:07.813Z,14.78
2023-05-10T06:36:34.291Z,14.89
2023-05-10T06:39:01.185Z,15.20
2023-05-10T06:41:27.533Z,16.14
2023-05-10T06:43:54.000Z,16.08
2023-05-10T06:46:20.450Z,15.72
2023-05-10T06:48:47.035Z,15.85
2023-05-10T06:51:14.873Z,15.94
2023-05-10T06:53:41.283Z,15.80
2023-05-10T06:56:07.730Z,15.92
2023-05-10T06:58:34.174Z,15.86
2023-05-10T07:01:04.481Z,15.90
2023-05-10T07:03:31.002Z,15.84
2023-05-10T07:06:01.261Z,16.13
2023-05-10T07:08:29.019Z,16.52
2023-05-10T07:11:00.709Z,16.20
2023-05-10T07:13:27.193Z,16.69
2023-05-10T07:15:53.694Z,17.12
2023-05-10T07:18:20.165Z,17.09
2023-05-10T07:20:46.682Z,17.54
2023-05-10T07:23:15.445Z,17.85
2023-05-10T07:25:46.125Z,17.26
2023-05-10T07:28:15.700Z,17.15
2023-05-10T07:30:42.586Z,17.09
2023-05-10T07:33:09.688Z,17.07
2023-05-10T07:35:36.487Z,17.86
2023-05-10T07:38:08.584Z,17.41
2023-05-10T07:40:38.019Z,16.28
2023-05-10T07:43:05.875Z,16.82
2023-05-10T07:45:32.302Z,16.32
2023-05-10T07:47:58.759Z,16.51
2023-05-10T07:50:25.206Z,16.67
2023-05-10T07:52:51.637Z,16.26
2023-05-10T07:55:19.646Z,16.38
2023-05-10T07:57:48.489Z,15.78
2023-05-10T08:00:21.404Z,15.59
2023-05-10T08:02:50.595Z,15.77
2023-05-10T08:05:20.577Z,15.67
2023-05-10T08:07:46.969Z,15.81
2023-05-10T08:10:15.575Z,15.93
2023-05-10T08:12:42.002Z,15.79
2023-05-10T08:15:11.710Z,15.84
2023-05-10T08:17:51.363Z,15.57
2023-05-10T08:20:17.815Z,15.46
2023-05-10T08:22:44.287Z,15.18
2023-05-10T08:25:10.711Z,15.08
2023-05-10T08:27:37.114Z,15.44
2023-05-10T08:30:04.033Z,15.39
2023-05-10T08:32:30.510Z,15.23
2023-05-10T08:34:58.289Z,15.06
2023-05-10T08:37:25.104Z,14.99
2023-05-10T08:39:51.483Z,14.80
2023-05-10T08:42:22.455Z,14.87
2023-05-10T08:44:49.875Z,14.99
2023-05-10T08:47:19.038Z,15.15
2023-05-10T08:49:50.421Z,14.31
2023-05-10T08:52:19.537Z,14.64
2023-05-10T08:54:46.062Z,14.56
2023-05-10T08:57:12.988Z,14.32
2023-05-10T08:59:52.211Z,13.98
2023-05-10T09:02:22.467Z,13.89
2023-05-10T09:04:51.909Z,13.44
2023-05-10T09:07:25.025Z,13.29
2023-05-10T09:09:51.905Z,13.14
2023-05-10T09:12:21.078Z,13.00
2023-05-10T09:14:49.784Z,12.98
2023-05-10T09:17:18.867Z,12.97
2023-05-10T09:19:47.245Z,12.80
2023-05-10T09:22:13.990Z,12.72
2023-05-10T09:24:44.477Z,12.59
2023-05-10T09:27:13.330Z,12.61
2023-05-10T09:29:42.926Z,12.57
2023-05-10T09:32:09.757Z,12.58
2023-05-10T09:34:40.082Z,12.66
2023-05-10T09:37:06.964Z,12.63
2023-05-10T09:39:34.758Z,12.66
2023-05-10T09:42:06.383Z,12.73
2023-05-10T09:44:33.282Z,12.81
2023-05-10T09:47:00.017Z,12.80
2023-05-10T09:49:26.401Z,12.82
2023-05-10T09:52:03.892Z,12.92
2023-05-10T09:54:54.756Z,12.97
2023-05-10T09:57:25.695Z,12.83
2023-05-10T10:00:05.697Z,12.89
2023-05-10T10:03:31.370Z,12.95
2023-05-10T10:06:26.813Z,13.00
2023-05-10T10:09:08.693Z,12.91
2023-05-10T10:11:43.105Z,12.98
2023-05-10T10:14:13.384Z,13.13
2023-05-10T10:17:41.945Z,13.10
2023-05-10T10:21:00.908Z,13.26
2023-05-10T10:23:32.043Z,13.16
2023-05-10T10:25:59.140Z,13.14
2023-05-10T10:28:34.514Z,13.22
2023-05-10T10:31:25.130Z,13.38
2023-05-10T10:34:10.292Z,13.42
2023-05-10T10:36:50.957Z,13.43
2023-05-10T10:39:45.526Z,13.62
2023-05-10T10:42:35.003Z,13.63
2023-05-10T10:46:37.937Z,13.38
2023-05-10T10:51:16.950Z,13.16
2023-05-10T10:54:15.826Z,13.07
2023-05-10T10:57:33.530Z,13.23
2023-05-10T11:04:20.773Z,13.29
2023-05-10T11:07:22.678Z,13.36
2023-05-10T11:09:53.483Z,13.51
2023-05-10T11:12:43.471Z,13.56
2023-05-10T11:15:35.746Z,13.61
2023-05-10T11:18:43.408Z,13.77
2023-05-10T11:21:49.922Z,13.64
2023-05-10T11:24:29.135Z,13.64
2023-05-10T11:27:00.816Z,13.72
2023-05-10T11:29:28.969Z,13.72
2023-05-10T11:31:58.862Z,13.69
2023-05-10T11:34:33.407Z,13.62
2023-05-10T11:37:07.376Z,13.66
2023-05-10T11:39:37.937Z,13.91
2023-05-10T11:42:04.740Z,13.86
2023-05-10T11:44:31.844Z,13.96
2023-05-10T11:47:02.502Z,14.17
2023-05-10T11:49:31.604Z,14.25
2023-05-10T11:52:11.120Z,14.42
2023-05-10T11:54:48.521Z,14.47
2023-05-10T11:57:17.540Z,14.72
2023-05-10T11:59:59.613Z,14.74
2023-05-10T12:02:36.378Z,14.86
2023-05-10T12:05:06.676Z,14.84
2023-05-10T12:07:37.259Z,14.99
2023-05-10T12:10:16.069Z,14.96
2023-05-10T12:12:48.382Z,14.87
2023-05-10T12:15:26.212Z,14.71
2023-05-10T12:17:54.824Z,14.94
2023-05-10T12:20:30.110Z,14.66
2023-05-10T12:23:09.242Z,14.89
2023-05-10T12:25:38.202Z,14.99
2023-05-10T12:28:10.307Z,14.92
2023-05-10T12:30:48.301Z,15.17
2023-05-10T12:33:23.595Z,15.16
2023-05-10T12:35:55.153Z,15.20
2023-05-10T12:38:38.878Z,15.14
2023-05-10T12:41:16.281Z,15.03
2023-05-10T12:43:45.977Z,15.00
2023-05-10T12:46:18.821Z,15.12
2023-05-10T12:48:55.195Z,15.03
2023-05-10T12:54:08.721Z,15.38
2023-05-10T12:56:35.272Z,15.24
2023-05-10T12:59:04.544Z,14.96
2023-05-10T13:01:36.337Z,15.13
2023-05-10T13:04:07.931Z,15.28
2023-05-10T13:06:50.060Z,15.16
2023-05-10T13:09:29.358Z,15.29
2023-05-10T13:12:04.186Z,15.39
2023-05-10T13:14:33.676Z,15.52
2023-05-10T13:17:04.150Z,15.36
2023-05-10T13:19:51.750Z,15.22
2023-05-10T13:22:32.569Z,14.98
2023-05-10T13:25:08.478Z,14.88
2023-05-10T13:27:34.957Z,14.82
2023-05-10T13:30:01.797Z,15.08
2023-05-10T13:32:28.315Z,14.99
2023-05-10T13:34:54.876Z,14.87
2023-05-10T13:37:21.460Z,14.66
2023-05-10T13:39:48.143Z,14.78
2023-05-10T13:42:16.513Z,14.65
2023-05-10T13:44:43.188Z,14.74
2023-05-10T13:47:09.878Z,14.86
2023-05-10T13:49:36.423Z,14.87
2023-05-10T13:52:02.955Z,14.87
2023-05-10T13:54:29.435Z,14.78
2023-05-10T13:56:55.906Z,14.68
2023-05-10T13:59:23.703Z,14.70
2023-05-10T14:01:50.215Z,14.46
2023-05-10T14:04:16.697Z,14.29
2023-05-10T14:06:43.207Z,14.40
2023-05-10T14:09:09.773Z,14.16
2023-05-10T14:11:36.452Z,14.12
2023-05-10T14:14:02.901Z,14.18
2023-05-10T14:16:30.823Z,14.18
2023-05-10T14:18:57.329Z,14.23
2023-05-10T14:21:23.940Z,14.29
2023-05-10T14:23:50.398Z,14.29
2023-05-10T14:26:17.047Z,14.35
2023-05-10T14:28:43.537Z,14.28
2023-05-10T14:31:10.001Z,14.30
2023-05-10T14:33:37.814Z,14.27
2023-05-10T14:36:04.624Z,14.20
2023-05-10T14:38:31.142Z,14.21
2023-05-10T14:40:57.828Z,14.17
2023-05-10T14:43:24.274Z,14.14
2023-05-10T14:45:50.809Z,14.24
2023-05-10T14:48:17.952Z,14.26
2023-05-10T14:50:46.243Z,14.11
2023-05-10T14:53:12.728Z,14.06
2023-05-10T14:55:39.133Z,13.95
2023-05-10T14:58:05.770Z,13.98
2023-05-10T15:00:35.120Z,14.03
2023-05-10T15:03:02.437Z,14.01
2023-05-10T15:05:29.347Z,13.77
2023-05-10T15:07:57.852Z,13.72
2023-05-10T15:10:24.375Z,13.58
2023-05-10T15:12:50.967Z,13.69
2023-05-10T15:15:17.794Z,13.53
2023-05-10T15:17:44.564Z,13.40
2023-05-10T15:20:11.682Z,13.51
2023-05-10T15:22:38.121Z,13.52
2023-05-10T15:25:06.953Z,13.55
2023-05-10T15:27:33.467Z,13.58
2023-05-10T15:30:00.061Z,13.46
2023-05-10T15:32:26.662Z,13.43
2023-05-10T15:34:53.156Z,13.53
2023-05-10T15:37:19.570Z,13.56
2023-05-10T15:39:45.962Z,13.43
2023-05-10T15:42:13.718Z,13.53
2023-05-10T15:44:40.104Z,13.54
2023-05-10T15:47:06.597Z,13.59
2023-05-10T15:49:33.264Z,13.63
2023-05-10T15:51:59.690Z,13.63
2023-05-10T15:54:26.210Z,13.66
2023-05-10T15:56:52.689Z,13.62
2023-05-10T15:59:20.570Z,13.39
2023-05-10T16:01:47.071Z,13.38
2023-05-10T16:04:15.323Z,13.33
2023-05-10T16:06:41.753Z,13.55
2023-05-10T16:09:08.179Z,13.62
2023-05-10T16:11:34.633Z,13.63
2023-05-10T16:14:01.032Z,13.56
2023-05-10T16:16:28.935Z,13.63
2023-05-10T16:18:57.690Z,13.75
2023-05-10T16:21:24.219Z,13.74
2023-05-10T16:23:53.498Z,13.81
2023-05-10T16:26:19.952Z,13.80
2023-05-10T16:28:46.805Z,13.75
2023-05-10T16:31:13.257Z,13.72
2023-05-10T16:33:41.035Z,13.74
2023-05-10T16:36:09.435Z,13.80
2023-05-10T16:38:35.940Z,13.62
2023-05-10T16:41:02.534Z,13.47
2023-05-10T16:43:31.187Z,13.55
2023-05-10T16:45:57.723Z,13.47
2023-05-10T16:48:24.197Z,13.66
2023-05-10T16:50:55.171Z,13.61
2023-05-10T16:53:21.607Z,13.70
2023-05-10T16:55:48.029Z,13.83
2023-05-10T16:58:14.457Z,13.78
2023-05-10T17:00:40.921Z,13.75
2023-05-10T17:03:07.735Z,13.80
2023-05-10T17:05:39.765Z,13.80
2023-05-10T17:08:19.876Z,13.72
2023-05-10T17:10:46.637Z,13.75
2023-05-10T17:13:13.648Z,13.86
2023-05-10T17:15:40.334Z,13.76
2023-05-10T17:18:07.025Z,13.73
2023-05-10T17:20:39.163Z,13.76
2023-05-10T17:23:07.034Z,13.79
2023-05-10T17:25:35.147Z,13.82
2023-05-10T17:28:01.900Z,13.82
2023-05-10T17:30:31.699Z,13.84
2023-05-10T17:32:58.760Z,13.75
2023-05-10T17:35:29.527Z,13.74
2023-05-10T17:37:59.000Z,13.69
2023-05-10T17:40:26.756Z,13.80
2023-05-10T17:42:53.183Z,13.82
2023-05-10T17:45:35.038Z,13.84
2023-05-10T17:48:01.543Z,13.84
2023-05-10T17:50:28.004Z,13.88
2023-05-10T17:52:54.497Z,13.86
2023-05-10T17:55:20.924Z,13.80
2023-05-10T17:57:51.147Z,13.75
2023-05-10T18:00:24.603Z,13.70
2023-05-10T18:02:53.486Z,13.69
2023-05-10T18:05:23.232Z,13.70
2023-05-10T18:07:49.950Z,13.70
2023-05-10T18:10:16.506Z,13.71
2023-05-10T18:12:44.100Z,13.68
2023-05-10T18:15:20.780Z,13.72
2023-05-10T18:17:52.185Z,13.56
2023-05-10T18:20:18.889Z,13.57
2023-05-10T18:22:45.279Z,13.63
2023-05-10T18:25:11.706Z,13.55
2023-05-10T18:27:38.387Z,13.51
2023-05-10T18:30:08.695Z,13.46
2023-05-10T18:32:37.668Z,13.45
2023-05-10T18:35:10.127Z,13.40
2023-05-10T18:37:42.509Z,13.36
2023-05-10T18:40:09.524Z,13.39
2023-05-10T18:42:36.050Z,13.40
2023-05-10T18:45:02.955Z,13.36
2023-05-10T18:47:35.404Z,13.32
2023-05-10T18:50:04.810Z,13.37
2023-05-10T18:52:33.938Z,13.31
2023-05-10T18:55:03.947Z,13.31
2023-05-10T18:57:30.416Z,13.31
2023-05-10T18:59:57.135Z,13.23
2023-05-10T19:02:23.586Z,13.21
2023-05-10T19:04:52.444Z,13.20
2023-05-10T19:07:20.413Z,13.16
2023-05-10T19:09:47.013Z,13.12
2023-05-10T19:12:13.587Z,13.20
2023-05-10T19:14:40.165Z,13.23
2023-05-10T19:17:06.666Z,13.17
2023-05-10T19:19:33.262Z,13.19
2023-05-10T19:21:59.977Z,13.16
2023-05-10T19:24:28.047Z,13.21
2023-05-10T19:26:54.715Z,13.22
2023-05-10T19:29:21.152Z,13.14
2023-05-10T19:31:47.870Z,13.19
2023-05-10T19:34:14.611Z,13.23
2023-05-10T19:36:44.579Z,13.23
2023-05-10T19:39:11.226Z,13.22
2023-05-10T19:41:39.172Z,13.21
2023-05-10T19:44:05.690Z,13.21
2023-05-10T19:46:32.195Z,13.21
2023-05-10T19:48:58.647Z,13.21
2023-05-10T19:51:25.100Z,13.20
2023-05-10T19:53:51.687Z,13.13
2023-05-10T19:56:18.373Z,13.14
2023-05-10T19:58:46.398Z,13.09
2023-05-10T20:01:14.828Z,13.10
2023-05-10T20:03:41.386Z,13.03
2023-05-10T20:06:08.088Z,12.99
2023-05-10T20:08:34.482Z,13.01
2023-05-10T20:11:01.189Z,13.00
2023-05-10T20:13:27.955Z,12.99
2023-05-10T20:15:57.055Z,12.96
2023-05-10T20:18:23.751Z,12.93
2023-05-10T20:20:53.402Z,12.97
2023-05-10T20:23:19.983Z,13.00
2023-05-10T20:25:46.540Z,12.99
2023-05-10T20:28:12.989Z,12.95
2023-05-10T20:30:39.410Z,12.94
2023-05-10T20:33:07.210Z,12.98
2023-05-10T20:35:33.741Z,12.93
2023-05-10T20:38:00.157Z,13.02
2023-05-10T20:40:26.604Z,13.00
2023-05-10T20:42:53.056Z,13.02
2023-05-10T20:45:19.664Z,13.03
2023-05-10T20:47:46.251Z,13.02
2023-05-10T20:50:14.084Z,13.01
2023-05-10T20:52:40.539Z,12.99
2023-05-10T20:55:07.900Z,12.96
2023-05-10T20:57:34.279Z,13.01
2023-05-10T21:00:00.734Z,12.98
2023-05-10T21:02:27.299Z,12.99
2023-05-10T21:04:56.330Z,12.94
2023-05-10T21:07:25.516Z,12.97
2023-05-10T21:09:52.063Z,13.00
2023-05-10T21:12:18.593Z,12.96
2023-05-10T21:14:45.054Z,12.98
2023-05-10T21:17:11.573Z,12.99
2023-05-10T21:19:38.048Z,13.01
2023-05-10T21:22:10.718Z,13.01
2023-05-10T21:24:46.980Z,13.02
2023-05-10T21:27:13.406Z,13.02
2023-05-10T21:29:39.888Z,13.01
2023-05-10T21:32:06.577Z,12.98
2023-05-10T21:34:33.098Z,13.01
2023-05-10T21:36:59.626Z,13.00
2023-05-10T21:39:26.235Z,13.01
2023-05-10T21:41:54.319Z,13.00
2023-05-10T21:44:21.288Z,13.00
2023-05-10T21:46:47.757Z,12.99
2023-05-10T21:49:14.307Z,12.97
2023-05-10T21:51:40.829Z,12.98
2023-05-10T21:54:07.256Z,12.93
2023-05-10T21:56:33.725Z,12.97
2023-05-10T21:59:01.933Z,12.97
2023-05-10T22:01:28.525Z,12.95
2023-05-10T22:03:55.007Z,12.94
2023-05-10T22:06:21.452Z,12.92
2023-05-10T22:08:47.910Z,12.90
2023-05-10T22:11:14.397Z,12.94
2023-05-10T22:13:40.831Z,12.95
2023-05-10T22:16:08.622Z,12.90
2023-05-10T22:18:35.213Z,12.93
2023-05-10T22:21:01.661Z,12.91
2023-05-10T22:23:28.147Z,12.94
2023-05-10T22:25:58.834Z,12.90
2023-05-10T22:28:25.443Z,12.93
2023-05-10T22:30:51.983Z,12.92
2023-05-10T22:33:31.882Z,12.90
2023-05-10T22:35:58.364Z,12.86
2023-05-10T22:38:26.806Z,12.88
2023-05-10T22:40:53.318Z,12.88
2023-05-10T22:43:25.093Z,12.85
2023-05-10T22:45:51.544Z,12.90
2023-05-10T22:48:17.993Z,12.90
2023-05-10T22:50:45.818Z,12.91
2023-05-10T22:53:12.257Z,12.91
2023-05-10T22:55:38.764Z,12.94
2023-05-10T22:58:05.848Z,12.92
2023-05-10T23:00:32.506Z,12.91
2023-05-10T23:02:59.149Z,12.92
2023-05-10T23:05:25.690Z,12.94
2023-05-10T23:07:53.468Z,12.86
2023-05-10T23:10:20.132Z,12.91
2023-05-10T23:12:46.590Z,12.91
2023-05-10T23:15:13.075Z,12.91
2023-05-10T23:17:39.570Z,12.86
2023-05-10T23:20:07.355Z,12.88
2023-05-10T23:22:33.757Z,12.91
2023-05-10T23:25:01.627Z,12.80
2023-05-10T23:27:28.917Z,12.88
2023-05-10T23:29:55.409Z,12.89
2023-05-10T23:32:22.248Z,12.89
2023-05-10T23:34:48.924Z,12.92
2023-05-10T23:37:15.473Z,12.89
2023-05-10T23:39:41.911Z,12.88
2023-05-10T23:42:09.687Z,12.85
2023-05-10T23:44:36.097Z,12.85
2023-05-10T23:47:02.525Z,12.85
2023-05-10T23:49:31.305Z,12.82
2023-05-10T23:51:57.730Z,12.87
2023-05-10T23:54:24.135Z,12.84
2023-05-10T23:56:50.580Z,12.84
2023-05-10T23:59:18.359Z,12.80
